createdAt,value
2022-12-28T00:00:01.273Z,1002.22
2022-12-28T00:01:01.281Z,1002.15
2022-12-28T00:02:01.367Z,1002.18
2022-12-28T00:03:01.322Z,1002.18
2022-12-28T00:04:01.334Z,1002.19
2022-12-28T00:05:01.342Z,1002.17
2022-12-28T00:06:01.359Z,1002.11
2022-12-28T00:07:01.369Z,1002.08
2022-12-28T00:08:01.888Z,1002.15
2022-12-28T00:09:01.426Z,1002.07
2022-12-28T00:10:01.414Z,1002.07
2022-12-28T00:11:06.983Z,1002.01
2022-12-28T00:12:01.443Z,1001.88
2022-12-28T00:13:01.460Z,1001.99
2022-12-28T00:14:01.497Z,1002.01
2022-12-28T00:15:01.494Z,1001.96
2022-12-28T00:16:01.513Z,1001.91
2022-12-28T00:17:01.524Z,1001.88
2022-12-28T00:18:01.561Z,1001.93
2022-12-28T00:19:01.559Z,1001.84
2022-12-28T00:20:01.570Z,1001.83
2022-12-28T00:21:01.581Z,1001.81
2022-12-28T00:22:01.589Z,1001.81
2022-12-28T00:23:01.607Z,1001.79
2022-12-28T00:24:01.624Z,1001.7
2022-12-28T00:25:01.636Z,1001.75
2022-12-28T00:26:01.659Z,1001.64
2022-12-28T00:27:01.668Z,1001.6
2022-12-28T00:28:01.679Z,1001.59
2022-12-28T00:29:05.005Z,1001.57
2022-12-28T00:30:01.765Z,1001.54
2022-12-28T00:31:01.725Z,1001.36
2022-12-28T00:32:01.782Z,1001.45
2022-12-28T00:33:01.757Z,1001.53
2022-12-28T00:34:01.797Z,1001.57
2022-12-28T00:35:01.781Z,1001.54
2022-12-28T00:36:01.818Z,1001.46
2022-12-28T00:37:07.952Z,1001.4
2022-12-28T00:38:01.828Z,1001.43
2022-12-28T00:39:01.841Z,1001.34
2022-12-28T00:40:01.893Z,1001.3
2022-12-28T00:41:01.873Z,1001.17
2022-12-28T00:42:01.888Z,1001.21
2022-12-28T00:43:01.901Z,1001.27
2022-12-28T00:44:01.917Z,1001.25
2022-12-28T00:45:01.931Z,1001.26
2022-12-28T00:46:02.038Z,1001.21
2022-12-28T00:47:01.964Z,1001.1
2022-12-28T00:48:01.971Z,1001.03
2022-12-28T00:49:01.990Z,1000.93
2022-12-28T00:50:02.029Z,1001.05
2022-12-28T00:51:02.021Z,1001.08
2022-12-28T00:52:02.035Z,1001.04
2022-12-28T00:53:02.049Z,1001.05
2022-12-28T00:54:02.065Z,1000.99
2022-12-28T00:55:02.079Z,1000.94
2022-12-28T00:56:02.089Z,1000.92
2022-12-28T00:57:02.116Z,1000.79
2022-12-28T00:58:02.124Z,1000.9
2022-12-28T00:59:02.156Z,1000.87
2022-12-28T01:00:02.170Z,1000.85
2022-12-28T01:01:02.253Z,1000.83
2022-12-28T01:02:02.321Z,1000.85
2022-12-28T01:03:02.250Z,1000.79
2022-12-28T01:04:02.209Z,1000.76
2022-12-28T01:05:02.230Z,1000.64
2022-12-28T01:06:02.263Z,1000.63
2022-12-28T01:07:02.255Z,1000.66
2022-12-28T01:08:02.467Z,1000.67
2022-12-28T01:09:02.285Z,1000.6
2022-12-28T01:10:02.319Z,1000.54
2022-12-28T01:11:02.310Z,1000.59
2022-12-28T01:12:02.327Z,1000.51
2022-12-28T01:13:02.347Z,1000.5
2022-12-28T01:14:02.355Z,1000.48
2022-12-28T01:15:02.369Z,1000.52
2022-12-28T01:16:02.442Z,1000.57
2022-12-28T01:17:02.401Z,1000.53
2022-12-28T01:18:02.416Z,1000.51
2022-12-28T01:19:02.426Z,1000.49
2022-12-28T01:20:02.444Z,1000.58
2022-12-28T01:21:02.459Z,1000.47
2022-12-28T01:22:02.496Z,1000.47
2022-12-28T01:23:02.486Z,1000.51
2022-12-28T01:24:02.507Z,1000.52
2022-12-28T01:25:02.521Z,1000.56
2022-12-28T01:26:02.529Z,1000.6
2022-12-28T01:27:02.546Z,1000.53
2022-12-28T01:28:02.561Z,1000.52
2022-12-28T01:29:02.584Z,1000.49
2022-12-28T01:30:02.590Z,1000.52
2022-12-28T01:31:02.606Z,1000.51
2022-12-28T01:32:02.713Z,1000.5
2022-12-28T01:33:02.675Z,1000.44
2022-12-28T01:34:02.677Z,1000.42
2022-12-28T01:35:02.667Z,1000.45
2022-12-28T01:36:02.678Z,1000.41
2022-12-28T01:37:02.696Z,1000.43
2022-12-28T01:38:02.743Z,1000.45
2022-12-28T01:39:02.927Z,1000.43
2022-12-28T01:40:02.752Z,1000.43
2022-12-28T01:41:02.901Z,1000.37
2022-12-28T01:42:02.964Z,1000.35
2022-12-28T01:43:02.984Z,1000.33
2022-12-28T01:44:03.020Z,1000.37
2022-12-28T01:45:03.021Z,1000.37
2022-12-28T01:46:02.952Z,1000.4
2022-12-28T01:47:02.840Z,1000.37
2022-12-28T01:48:03.012Z,1000.4
2022-12-28T01:49:02.921Z,1000.36
2022-12-28T01:50:02.981Z,1000.3
2022-12-28T01:51:02.956Z,1000.23
2022-12-28T01:52:03.019Z,1000.3
2022-12-28T01:53:02.935Z,1000.27
2022-12-28T01:54:02.985Z,1000.24
2022-12-28T01:55:02.961Z,1000.25
2022-12-28T01:56:02.976Z,1000.1
2022-12-28T01:57:02.993Z,1000.2
2022-12-28T01:58:03.002Z,1000.2
2022-12-28T01:59:03.012Z,1000.2
2022-12-28T02:00:03.032Z,1000.23
2022-12-28T02:01:03.155Z,1000.14
2022-12-28T02:02:03.430Z,1000.11
2022-12-28T02:03:03.150Z,1000.24
2022-12-28T02:04:03.094Z,1000.18
2022-12-28T02:05:03.102Z,1000.16
2022-12-28T02:06:03.136Z,1000.17
2022-12-28T02:07:03.132Z,1000.09
2022-12-28T02:08:03.596Z,1000.05
2022-12-28T02:09:03.162Z,1000.07
2022-12-28T02:10:40.236Z,1000.04
2022-12-28T02:11:03.195Z,1000.01
2022-12-28T02:12:03.216Z,999.93
2022-12-28T02:13:03.261Z,999.97
2022-12-28T02:14:03.236Z,999.98
2022-12-28T02:15:03.254Z,999.94
2022-12-28T02:16:03.259Z,1000
2022-12-28T02:17:03.328Z,999.96
2022-12-28T02:18:03.297Z,999.96
2022-12-28T02:19:03.315Z,1000.03
2022-12-28T02:20:03.323Z,1000
2022-12-28T02:21:03.334Z,1000.01
2022-12-28T02:22:03.354Z,1000.04
2022-12-28T02:23:03.367Z,999.92
2022-12-28T02:24:03.412Z,999.91
2022-12-28T02:25:11.248Z,999.91
2022-12-28T02:26:03.436Z,999.9
2022-12-28T02:27:03.423Z,999.88
2022-12-28T02:28:03.435Z,999.89
2022-12-28T02:29:03.452Z,999.82
2022-12-28T02:30:03.471Z,999.78
2022-12-28T02:31:03.587Z,999.85
2022-12-28T02:32:03.508Z,999.83
2022-12-28T02:33:03.510Z,999.78
2022-12-28T02:34:03.529Z,999.74
2022-12-28T02:35:03.542Z,999.7
2022-12-28T02:36:03.571Z,999.68
2022-12-28T02:37:03.571Z,999.7
2022-12-28T02:38:03.584Z,999.67
2022-12-28T02:39:03.599Z,999.58
2022-12-28T02:40:03.637Z,999.61
2022-12-28T02:41:03.629Z,999.4
2022-12-28T02:42:03.676Z,999.46
2022-12-28T02:43:03.659Z,999.45
2022-12-28T02:44:03.675Z,999.51
2022-12-28T02:45:03.692Z,999.46
2022-12-28T02:46:03.779Z,999.45
2022-12-28T02:47:03.722Z,999.39
2022-12-28T02:48:03.744Z,999.44
2022-12-28T02:49:03.749Z,999.42
2022-12-28T02:50:03.760Z,999.38
2022-12-28T02:51:03.776Z,999.41
2022-12-28T02:52:03.792Z,999.39
2022-12-28T02:53:03.811Z,999.35
2022-12-28T02:54:03.834Z,999.34
2022-12-28T02:55:03.833Z,999.32
2022-12-28T02:56:03.856Z,999.34
2022-12-28T02:57:03.869Z,999.27
2022-12-28T02:58:03.915Z,999.27
2022-12-28T02:59:03.895Z,999.18
2022-12-28T03:00:03.926Z,999.22
2022-12-28T03:01:04.074Z,999.18
2022-12-28T03:02:04.096Z,999.2
2022-12-28T03:03:04.005Z,999.17
2022-12-28T03:04:03.980Z,999.15
2022-12-28T03:05:03.990Z,999.09
2022-12-28T03:06:04.013Z,999.11
2022-12-28T03:07:04.018Z,999.06
2022-12-28T03:08:04.090Z,999.01
2022-12-28T03:09:04.042Z,999.03
2022-12-28T03:10:04.064Z,998.99
2022-12-28T03:11:04.076Z,999.01
2022-12-28T03:12:04.092Z,998.95
2022-12-28T03:13:04.118Z,998.89
2022-12-28T03:14:04.154Z,998.96
2022-12-28T03:15:04.124Z,998.88
2022-12-28T03:16:04.181Z,998.89
2022-12-28T03:17:04.162Z,998.89
2022-12-28T03:18:04.172Z,998.88
2022-12-28T03:19:04.192Z,998.74
2022-12-28T03:20:04.206Z,998.77
2022-12-28T03:21:04.220Z,998.77
2022-12-28T03:22:04.255Z,998.71
2022-12-28T03:23:04.265Z,998.74
2022-12-28T03:24:04.265Z,998.74
2022-12-28T03:25:04.303Z,998.72
2022-12-28T03:26:04.300Z,998.67
2022-12-28T03:27:04.319Z,998.7
2022-12-28T03:28:04.328Z,998.57
2022-12-28T03:29:04.340Z,998.52
2022-12-28T03:30:04.382Z,998.47
2022-12-28T03:31:04.424Z,998.52
2022-12-28T03:32:04.381Z,998.53
2022-12-28T03:33:04.406Z,998.48
2022-12-28T03:34:04.418Z,998.54
2022-12-28T03:35:04.430Z,998.41
2022-12-28T03:36:04.447Z,998.34
2022-12-28T03:37:04.451Z,998.29
2022-12-28T03:38:04.474Z,998.36
2022-12-28T03:39:04.490Z,998.27
2022-12-28T03:40:04.497Z,998.15
2022-12-28T03:41:04.520Z,998.11
2022-12-28T03:42:04.540Z,998.11
2022-12-28T03:43:04.604Z,998.08
2022-12-28T03:44:04.563Z,998.08
2022-12-28T03:45:04.578Z,998.1
2022-12-28T03:46:04.661Z,998.07
2022-12-28T03:47:04.614Z,998.05
2022-12-28T03:48:04.617Z,998.01
2022-12-28T03:49:04.637Z,998
2022-12-28T03:50:04.649Z,998.01
2022-12-28T03:51:04.685Z,998
2022-12-28T03:52:04.691Z,997.97
2022-12-28T03:53:04.696Z,997.96
2022-12-28T03:54:04.716Z,997.87
2022-12-28T03:55:04.728Z,997.81
2022-12-28T03:56:04.735Z,997.89
2022-12-28T03:57:04.764Z,997.93
2022-12-28T03:58:04.773Z,997.92
2022-12-28T03:59:04.787Z,997.94
2022-12-28T04:00:04.799Z,997.89
2022-12-28T04:01:04.876Z,997.83
2022-12-28T04:02:04.924Z,997.84
2022-12-28T04:03:04.883Z,997.84
2022-12-28T04:04:04.857Z,997.75
2022-12-28T04:05:04.871Z,997.76
2022-12-28T04:06:04.887Z,997.83
2022-12-28T04:07:04.904Z,997.76
2022-12-28T04:08:05.220Z,997.73
2022-12-28T04:09:04.932Z,997.81
2022-12-28T04:10:04.961Z,997.79
2022-12-28T04:11:04.966Z,997.73
2022-12-28T04:12:04.998Z,997.75
2022-12-28T04:13:05.010Z,997.76
2022-12-28T04:14:10.228Z,997.7
2022-12-28T04:15:05.022Z,997.71
2022-12-28T04:16:05.062Z,997.66
2022-12-28T04:17:05.047Z,997.65
2022-12-28T04:18:05.104Z,997.64
2022-12-28T04:19:05.092Z,997.71
2022-12-28T04:20:05.105Z,997.6
2022-12-28T04:21:05.112Z,997.52
2022-12-28T04:22:05.120Z,997.59
2022-12-28T04:23:05.136Z,997.55
2022-12-28T04:24:05.148Z,997.6
2022-12-28T04:25:05.177Z,997.53
2022-12-28T04:26:05.179Z,997.52
2022-12-28T04:27:05.195Z,997.53
2022-12-28T04:28:05.209Z,997.5
2022-12-28T04:29:05.224Z,997.49
2022-12-28T04:30:05.235Z,997.45
2022-12-28T04:31:05.312Z,997.38
2022-12-28T04:32:05.266Z,997.36
2022-12-28T04:33:05.297Z,997.33
2022-12-28T04:34:05.331Z,997.33
2022-12-28T04:35:05.368Z,997.29
2022-12-28T04:36:05.329Z,997.26
2022-12-28T04:37:05.340Z,997.26
2022-12-28T04:38:05.357Z,997.26
2022-12-28T04:39:05.372Z,997.23
2022-12-28T04:40:05.384Z,997.2
2022-12-28T04:41:05.400Z,997.19
2022-12-28T04:42:05.420Z,997.12
2022-12-28T04:43:05.429Z,997.12
2022-12-28T04:44:05.446Z,997.12
2022-12-28T04:45:05.463Z,997.21
2022-12-28T04:46:05.636Z,997.09
2022-12-28T04:47:05.488Z,997.1
2022-12-28T04:48:05.523Z,997.08
2022-12-28T04:49:05.524Z,997.06
2022-12-28T04:50:05.561Z,996.99
2022-12-28T04:51:05.543Z,997.07
2022-12-28T04:52:05.561Z,997.1
2022-12-28T04:53:05.575Z,997.06
2022-12-28T04:54:05.591Z,997.08
2022-12-28T04:55:05.603Z,997.07
2022-12-28T04:56:05.624Z,996.97
2022-12-28T04:57:05.634Z,996.99
2022-12-28T04:58:05.651Z,996.99
2022-12-28T04:59:05.664Z,997
2022-12-28T05:00:05.683Z,996.93
2022-12-28T05:01:05.765Z,997.01
2022-12-28T05:02:05.805Z,996.92
2022-12-28T05:03:05.744Z,996.95
2022-12-28T05:04:05.740Z,996.92
2022-12-28T05:05:05.759Z,996.95
2022-12-28T05:06:05.798Z,996.92
2022-12-28T05:07:05.781Z,996.93
2022-12-28T05:08:05.846Z,996.95
2022-12-28T05:09:05.816Z,996.94
2022-12-28T05:10:05.826Z,996.96
2022-12-28T05:11:05.839Z,996.98
2022-12-28T05:12:05.847Z,996.95
2022-12-28T05:13:05.875Z,997.03
2022-12-28T05:14:05.887Z,997.01
2022-12-28T05:15:05.900Z,996.97
2022-12-28T05:16:05.956Z,997.04
2022-12-28T05:17:05.929Z,996.99
2022-12-28T05:18:05.939Z,997.02
2022-12-28T05:19:05.954Z,996.97
2022-12-28T05:20:05.975Z,997.05
2022-12-28T05:21:05.985Z,996.99
2022-12-28T05:22:06.022Z,996.97
2022-12-28T05:23:06.019Z,996.9
2022-12-28T05:24:06.031Z,996.91
2022-12-28T05:25:06.051Z,996.88
2022-12-28T05:26:06.060Z,996.88
2022-12-28T05:27:06.076Z,996.89
2022-12-28T05:28:06.087Z,996.87
2022-12-28T05:29:06.108Z,996.83
2022-12-28T05:30:06.114Z,996.77
2022-12-28T05:31:06.191Z,996.77
2022-12-28T05:32:06.148Z,996.82
2022-12-28T05:33:06.161Z,996.85
2022-12-28T05:34:06.176Z,996.86
2022-12-28T05:35:06.191Z,996.87
2022-12-28T05:36:06.209Z,996.88
2022-12-28T05:37:06.235Z,996.81
2022-12-28T05:38:06.259Z,996.76
2022-12-28T05:39:06.253Z,996.72
2022-12-28T05:40:06.270Z,996.75
2022-12-28T05:41:06.279Z,996.75
2022-12-28T05:42:06.300Z,996.69
2022-12-28T05:43:06.312Z,996.72
2022-12-28T05:44:06.322Z,996.68
2022-12-28T05:45:06.347Z,996.68
2022-12-28T05:46:06.390Z,996.67
2022-12-28T05:47:06.376Z,996.73
2022-12-28T05:48:06.381Z,996.66
2022-12-28T05:49:06.398Z,996.64
2022-12-28T05:50:06.410Z,996.63
2022-12-28T05:51:06.426Z,996.68
2022-12-28T05:52:06.439Z,996.64
2022-12-28T05:53:06.454Z,996.65
2022-12-28T05:54:06.508Z,996.66
2022-12-28T05:55:06.483Z,996.68
2022-12-28T05:56:10.736Z,996.54
2022-12-28T05:57:06.519Z,996.68
2022-12-28T05:58:06.535Z,996.59
2022-12-28T05:59:06.545Z,996.69
2022-12-28T06:00:06.559Z,996.59
2022-12-28T06:01:06.593Z,996.66
2022-12-28T06:02:06.697Z,996.59
2022-12-28T06:03:06.788Z,996.61
2022-12-28T06:04:06.617Z,996.59
2022-12-28T06:05:06.634Z,996.61
2022-12-28T06:06:06.646Z,996.62
2022-12-28T06:07:06.670Z,996.58
2022-12-28T06:08:06.731Z,996.52
2022-12-28T06:09:06.693Z,996.54
2022-12-28T06:10:06.727Z,996.5
2022-12-28T06:11:06.720Z,996.46
2022-12-28T06:12:06.736Z,996.48
2022-12-28T06:13:06.760Z,996.51
2022-12-28T06:14:06.766Z,996.46
2022-12-28T06:15:06.777Z,996.4
2022-12-28T06:16:06.832Z,996.48
2022-12-28T06:17:06.807Z,996.41
2022-12-28T06:18:06.824Z,996.43
2022-12-28T06:19:06.846Z,996.47
2022-12-28T06:20:06.853Z,996.45
2022-12-28T06:21:06.877Z,996.29
2022-12-28T06:22:06.880Z,996.34
2022-12-28T06:23:06.894Z,996.34
2022-12-28T06:24:06.918Z,996.36
2022-12-28T06:25:06.924Z,996.4
2022-12-28T06:26:06.964Z,996.4
2022-12-28T06:27:06.957Z,996.45
2022-12-28T06:28:06.973Z,996.41
2022-12-28T06:29:06.988Z,996.34
2022-12-28T06:30:06.998Z,996.32
2022-12-28T06:31:07.012Z,996.36
2022-12-28T06:32:07.113Z,996.31
2022-12-28T06:33:07.038Z,996.29
2022-12-28T06:34:07.059Z,996.32
2022-12-28T06:35:07.072Z,996.17
2022-12-28T06:36:07.089Z,996.21
2022-12-28T06:37:07.103Z,996.19
2022-12-28T06:38:07.124Z,996.23
2022-12-28T06:39:07.132Z,996.23
2022-12-28T06:40:07.153Z,996.22
2022-12-28T06:41:15.036Z,996.25
2022-12-28T06:42:07.217Z,996.22
2022-12-28T06:43:07.188Z,996.29
2022-12-28T06:44:07.207Z,996.27
2022-12-28T06:45:07.217Z,996.28
2022-12-28T06:46:07.315Z,996.3
2022-12-28T06:47:07.251Z,996.29
2022-12-28T06:48:07.261Z,996.29
2022-12-28T06:49:07.277Z,996.28
2022-12-28T06:50:07.296Z,996.24
2022-12-28T06:51:07.313Z,996.26
2022-12-28T06:52:07.327Z,996.23
2022-12-28T06:53:07.336Z,996.23
2022-12-28T06:54:07.352Z,996.15
2022-12-28T06:55:07.369Z,996.11
2022-12-28T06:56:07.383Z,996.12
2022-12-28T06:57:07.394Z,996.13
2022-12-28T06:58:07.438Z,996.09
2022-12-28T06:59:07.425Z,996.07
2022-12-28T07:00:07.503Z,996.14
2022-12-28T07:01:07.613Z,996.1
2022-12-28T07:02:07.582Z,996.11
2022-12-28T07:03:07.496Z,996.1
2022-12-28T07:04:07.511Z,996.15
2022-12-28T07:05:07.511Z,996.13
2022-12-28T07:06:07.543Z,996.07
2022-12-28T07:07:07.546Z,996.06
2022-12-28T07:08:12.475Z,996.09
2022-12-28T07:09:07.578Z,996.09
2022-12-28T07:10:07.588Z,996.11
2022-12-28T07:11:07.606Z,996.13
2022-12-28T07:12:07.617Z,996.05
2022-12-28T07:13:07.632Z,996.04
2022-12-28T07:14:07.668Z,996.04
2022-12-28T07:15:07.660Z,996.02
2022-12-28T07:16:07.675Z,996.07
2022-12-28T07:17:07.690Z,996.08
2022-12-28T07:18:07.704Z,996.08
2022-12-28T07:19:07.719Z,996.02
2022-12-28T07:20:07.729Z,996.05
2022-12-28T07:21:07.748Z,996.07
2022-12-28T07:22:07.762Z,996.05
2022-12-28T07:23:07.782Z,996.12
2022-12-28T07:24:07.992Z,996.08
2022-12-28T07:25:07.809Z,996.08
2022-12-28T07:26:07.822Z,995.98
2022-12-28T07:27:07.839Z,996.02
2022-12-28T07:28:07.855Z,996.02
2022-12-28T07:29:07.869Z,995.98
2022-12-28T07:30:07.908Z,995.97
2022-12-28T07:31:07.929Z,995.96
2022-12-28T07:32:07.906Z,995.99
2022-12-28T07:33:07.924Z,996
2022-12-28T07:34:07.951Z,996.01
2022-12-28T07:35:07.952Z,995.96
2022-12-28T07:36:07.965Z,995.91
2022-12-28T07:37:07.982Z,995.92
2022-12-28T07:38:08.001Z,995.98
2022-12-28T07:39:08.017Z,995.94
2022-12-28T07:40:08.026Z,995.96
2022-12-28T07:41:08.043Z,995.94
2022-12-28T07:42:08.058Z,995.9
2022-12-28T07:43:08.079Z,995.97
2022-12-28T07:44:08.097Z,995.92
2022-12-28T07:45:08.102Z,995.87
2022-12-28T07:46:08.216Z,995.89
2022-12-28T07:47:08.136Z,995.95
2022-12-28T07:48:08.163Z,995.94
2022-12-28T07:49:08.191Z,995.93
2022-12-28T07:50:08.170Z,995.94
2022-12-28T07:51:08.191Z,995.97
2022-12-28T07:52:08.204Z,995.95
2022-12-28T07:53:08.221Z,995.89
2022-12-28T07:54:08.228Z,995.95
2022-12-28T07:55:08.250Z,995.79
2022-12-28T07:56:08.262Z,995.88
2022-12-28T07:57:08.275Z,995.92
2022-12-28T07:58:08.289Z,995.88
2022-12-28T07:59:08.304Z,995.85
2022-12-28T08:00:08.322Z,995.91
2022-12-28T08:01:08.410Z,995.92
2022-12-28T08:02:08.489Z,995.83
2022-12-28T08:03:08.413Z,995.8
2022-12-28T08:04:08.381Z,995.96
2022-12-28T08:05:08.393Z,995.94
2022-12-28T08:06:08.409Z,995.89
2022-12-28T08:07:08.421Z,995.92
2022-12-28T08:08:08.844Z,995.87
2022-12-28T08:09:08.449Z,995.91
2022-12-28T08:10:08.466Z,995.93
2022-12-28T08:11:08.482Z,995.91
2022-12-28T08:12:08.499Z,995.86
2022-12-28T08:13:08.536Z,995.87
2022-12-28T08:14:08.524Z,995.88
2022-12-28T08:15:08.539Z,995.81
2022-12-28T08:16:08.603Z,995.95
2022-12-28T08:17:08.575Z,995.91
2022-12-28T08:18:08.610Z,995.95
2022-12-28T08:19:08.599Z,995.95
2022-12-28T08:20:08.613Z,995.89
2022-12-28T08:21:08.643Z,995.96
2022-12-28T08:22:08.648Z,995.94
2022-12-28T08:23:08.668Z,995.93
2022-12-28T08:24:08.669Z,995.96
2022-12-28T08:25:08.687Z,995.93
2022-12-28T08:26:08.704Z,996.01
2022-12-28T08:27:08.720Z,995.88
2022-12-28T08:28:08.732Z,995.96
2022-12-28T08:29:08.746Z,995.95
2022-12-28T08:30:08.763Z,995.95
2022-12-28T08:31:08.842Z,995.98
2022-12-28T08:32:08.816Z,995.95
2022-12-28T08:33:08.804Z,995.96
2022-12-28T08:34:08.861Z,995.94
2022-12-28T08:35:08.833Z,995.92
2022-12-28T08:36:08.866Z,995.9
2022-12-28T08:37:08.882Z,995.88
2022-12-28T08:38:08.889Z,995.94
2022-12-28T08:39:08.895Z,995.89
2022-12-28T08:40:08.914Z,995.87
2022-12-28T08:41:08.936Z,995.92
2022-12-28T08:42:08.943Z,995.92
2022-12-28T08:43:08.953Z,995.86
2022-12-28T08:44:08.988Z,995.88
2022-12-28T08:45:08.982Z,995.87
2022-12-28T08:46:09.105Z,995.88
2022-12-28T08:47:09.067Z,995.87
2022-12-28T08:48:09.027Z,995.83
2022-12-28T08:49:09.057Z,995.84
2022-12-28T08:50:11.988Z,995.85
2022-12-28T08:51:09.097Z,995.83
2022-12-28T08:52:09.086Z,995.87
2022-12-28T08:53:09.106Z,995.8
2022-12-28T08:54:09.118Z,995.86
2022-12-28T08:55:09.130Z,995.88
2022-12-28T08:56:09.145Z,995.88
2022-12-28T08:57:09.153Z,995.78
2022-12-28T08:58:09.175Z,995.93
2022-12-28T08:59:09.202Z,995.92
2022-12-28T09:00:09.225Z,995.85
2022-12-28T09:01:09.424Z,995.91
2022-12-28T09:02:09.312Z,995.8
2022-12-28T09:03:09.392Z,995.91
2022-12-28T09:04:09.269Z,995.91
2022-12-28T09:05:09.280Z,995.91
2022-12-28T09:06:09.324Z,995.87
2022-12-28T09:07:09.307Z,995.88
2022-12-28T09:08:09.372Z,995.93
2022-12-28T09:09:09.336Z,995.94
2022-12-28T09:10:09.423Z,995.93
2022-12-28T09:11:09.367Z,995.95
2022-12-28T09:12:09.378Z,995.97
2022-12-28T09:13:09.397Z,995.99
2022-12-28T09:14:09.440Z,995.94
2022-12-28T09:15:09.427Z,995.95
2022-12-28T09:16:09.499Z,996
2022-12-28T09:17:09.459Z,996.02
2022-12-28T09:18:09.488Z,995.99
2022-12-28T09:19:09.491Z,996.02
2022-12-28T09:20:09.499Z,996.01
2022-12-28T09:21:09.512Z,996.01
2022-12-28T09:22:09.559Z,995.97
2022-12-28T09:23:09.556Z,995.97
2022-12-28T09:24:09.560Z,996.01
2022-12-28T09:25:09.578Z,996
2022-12-28T09:26:09.592Z,996.01
2022-12-28T09:27:09.605Z,996.1
2022-12-28T09:28:09.630Z,996.12
2022-12-28T09:29:09.639Z,996.04
2022-12-28T09:30:09.647Z,996.02
2022-12-28T09:31:09.685Z,996.1
2022-12-28T09:32:09.679Z,996.02
2022-12-28T09:33:09.701Z,996.06
2022-12-28T09:35:09.741Z,996
2022-12-28T09:36:09.739Z,996.05
2022-12-28T09:37:09.750Z,996.02
2022-12-28T09:38:09.791Z,996.04
2022-12-28T09:39:09.837Z,996.02
2022-12-28T09:40:09.794Z,996.06
2022-12-28T09:41:09.811Z,996.03
2022-12-28T09:42:09.827Z,996.03
2022-12-28T09:43:09.841Z,995.99
2022-12-28T09:44:09.857Z,996.05
2022-12-28T09:45:09.868Z,996.07
2022-12-28T09:46:09.949Z,996.05
2022-12-28T09:47:09.899Z,996.11
2022-12-28T09:48:09.932Z,996.09
2022-12-28T09:49:09.942Z,996.09
2022-12-28T09:50:09.946Z,996.09
2022-12-28T09:51:09.960Z,996.09
2022-12-28T09:52:09.977Z,996.02
2022-12-28T09:53:10.002Z,996.07
2022-12-28T09:54:10.038Z,996.07
2022-12-28T09:55:10.022Z,996.07
2022-12-28T09:56:10.037Z,996.1
2022-12-28T09:57:10.058Z,996.07
2022-12-28T09:58:10.065Z,996.06
2022-12-28T09:59:10.077Z,996.07
2022-12-28T10:00:10.097Z,996.02
2022-12-28T10:01:10.127Z,995.99
2022-12-28T10:02:10.244Z,996.02
2022-12-28T10:03:10.193Z,996.03
2022-12-28T10:04:10.152Z,996.01
2022-12-28T10:05:10.169Z,995.99
2022-12-28T10:06:10.185Z,996.02
2022-12-28T10:07:10.196Z,995.95
2022-12-28T10:08:10.418Z,995.94
2022-12-28T10:09:10.228Z,995.94
2022-12-28T10:10:10.268Z,995.94
2022-12-28T10:11:10.261Z,995.94
2022-12-28T10:12:10.275Z,996
2022-12-28T10:13:29.528Z,995.96
2022-12-28T10:14:10.307Z,995.88
2022-12-28T10:15:10.316Z,995.87
2022-12-28T10:16:10.367Z,995.91
2022-12-28T10:17:10.345Z,995.91
2022-12-28T10:18:10.364Z,995.94
2022-12-28T10:19:10.378Z,995.8
2022-12-28T10:20:10.424Z,995.87
2022-12-28T10:21:10.432Z,995.89
2022-12-28T10:22:10.430Z,995.9
2022-12-28T10:23:10.436Z,995.87
2022-12-28T10:25:10.464Z,995.87
2022-12-28T10:26:10.521Z,995.87
2022-12-28T10:27:10.493Z,995.85
2022-12-28T10:28:10.534Z,995.81
2022-12-28T10:29:10.525Z,995.8
2022-12-28T10:30:10.536Z,995.76
2022-12-28T10:31:10.622Z,995.74
2022-12-28T10:32:10.569Z,995.76
2022-12-28T10:33:13.773Z,995.75
2022-12-28T10:34:10.602Z,995.74
2022-12-28T10:35:10.618Z,995.71
2022-12-28T10:36:10.628Z,995.64
2022-12-28T10:37:13.978Z,995.67
2022-12-28T10:38:10.679Z,995.57
2022-12-28T10:39:10.676Z,995.66
2022-12-28T10:40:10.687Z,995.65
2022-12-28T10:41:10.706Z,995.64
2022-12-28T10:42:10.751Z,995.59
2022-12-28T10:43:11.331Z,995.61
2022-12-28T10:44:38.211Z,995.6
2022-12-28T10:45:10.769Z,995.65
2022-12-28T10:46:10.781Z,995.54
2022-12-28T10:47:10.797Z,995.59
2022-12-28T10:48:10.809Z,995.54
2022-12-28T11:03:24.503Z,995.39
2022-12-28T11:04:24.383Z,995.36
2022-12-28T11:05:24.422Z,995.39
2022-12-28T11:06:27.307Z,995.33
2022-12-28T11:07:24.438Z,995.32
2022-12-28T11:08:24.749Z,995.31
2022-12-28T11:09:24.470Z,995.38
2022-12-28T11:10:24.473Z,995.33
2022-12-28T11:11:24.489Z,995.24
2022-12-28T11:12:24.503Z,995.26
2022-12-28T11:13:24.522Z,995.27
2022-12-28T11:14:24.532Z,995.27
2022-12-28T11:15:24.559Z,995.2
2022-12-28T11:16:24.583Z,995.15
2022-12-28T11:17:24.588Z,995.26
2022-12-28T11:18:24.591Z,995.3
2022-12-28T11:19:24.637Z,995.18
2022-12-28T11:20:24.630Z,995.3
2022-12-28T11:21:24.638Z,995.27
2022-12-28T11:22:24.654Z,995.24
2022-12-28T11:23:24.671Z,995.28
2022-12-28T11:24:24.682Z,995.24
2022-12-28T11:25:24.699Z,995.24
2022-12-28T11:26:24.711Z,995.28
2022-12-28T11:27:24.756Z,995.24
2022-12-28T11:28:24.737Z,995.24
2022-12-28T11:29:24.761Z,995.2
2022-12-28T11:30:24.769Z,995.22
2022-12-28T11:31:24.845Z,995.19
2022-12-28T11:32:24.804Z,995.21
2022-12-28T11:33:24.829Z,995.16
2022-12-28T11:34:24.830Z,995.09
2022-12-28T11:35:24.879Z,995.12
2022-12-28T11:36:24.866Z,995.14
2022-12-28T11:37:24.877Z,995.09
2022-12-28T11:38:24.891Z,995.06
2022-12-28T11:39:24.921Z,995.04
2022-12-28T11:40:24.921Z,995.03
2022-12-28T11:41:30.255Z,995.08
2022-12-28T11:42:41.432Z,995.07
2022-12-28T11:43:24.971Z,995
2022-12-28T11:44:24.982Z,995.02
2022-12-28T11:45:25.052Z,994.97
2022-12-28T11:46:25.009Z,994.99
2022-12-28T11:47:28.399Z,994.99
2022-12-28T11:48:25.043Z,995
2022-12-28T11:49:25.057Z,994.95
2022-12-28T11:50:25.073Z,994.95
2022-12-28T11:51:25.113Z,994.88
2022-12-28T11:52:25.102Z,994.94
2022-12-28T11:53:25.111Z,994.85
2022-12-28T11:54:25.129Z,994.83
2022-12-28T11:55:25.145Z,994.8
2022-12-28T11:56:25.162Z,994.79
2022-12-28T11:57:25.174Z,994.79
2022-12-28T11:58:25.190Z,994.77
2022-12-28T11:59:25.215Z,994.83
2022-12-28T12:00:25.339Z,994.81
2022-12-28T12:01:25.246Z,994.81
2022-12-28T12:02:25.289Z,994.77
2022-12-28T12:03:25.316Z,994.8
2022-12-28T12:04:25.282Z,994.78
2022-12-28T12:05:25.296Z,994.8
2022-12-28T12:06:31.278Z,994.8
2022-12-28T12:07:30.965Z,994.8
2022-12-28T12:08:25.638Z,994.76
2022-12-28T12:09:25.353Z,994.79
2022-12-28T12:10:25.369Z,994.74
2022-12-28T12:11:25.386Z,994.82
2022-12-28T12:12:25.399Z,994.81
2022-12-28T12:13:25.413Z,994.8
2022-12-28T12:14:25.433Z,994.79
2022-12-28T12:15:25.448Z,994.73
2022-12-28T12:16:25.494Z,994.79
2022-12-28T12:17:25.478Z,994.81
2022-12-28T12:18:25.489Z,994.84
2022-12-28T12:19:25.510Z,994.82
2022-12-28T12:20:25.517Z,994.76
2022-12-28T12:21:25.531Z,994.76
2022-12-28T12:22:25.551Z,994.74
2022-12-28T12:23:25.588Z,994.78
2022-12-28T12:24:25.595Z,994.78
2022-12-28T12:25:25.593Z,994.73
2022-12-28T12:26:25.608Z,994.68
2022-12-28T12:27:25.629Z,994.68
2022-12-28T12:28:25.639Z,994.69
2022-12-28T12:29:25.659Z,994.68
2022-12-28T12:30:25.815Z,994.72
2022-12-28T12:31:25.996Z,994.71
2022-12-28T12:32:25.703Z,994.68
2022-12-28T12:33:25.717Z,994.61
2022-12-28T12:34:25.736Z,994.66
2022-12-28T12:35:25.745Z,994.62
2022-12-28T12:36:25.758Z,994.61
2022-12-28T12:37:25.784Z,994.61
2022-12-28T12:38:25.788Z,994.6
2022-12-28T12:39:25.829Z,994.59
2022-12-28T12:40:25.820Z,994.48
2022-12-28T12:41:25.836Z,994.49
2022-12-28T12:42:25.848Z,994.51
2022-12-28T12:43:25.872Z,994.48